Time;durP1;ratioP1;P1;durP2;ratioP2;P2;SDS_P1;SDS_P2;PMS_P1;PMS_P2;Temp;Humidity;BMP_temperature;BMP_pressure;BME280_temperature;BME280_humidity;BME280_pressure;Samples;Min_cycle;Max_cycle;Signal;HPM_P1;HPM_P2
2023/07/12 00:01:22;;;;;;;2.35;0.88;;;24.70;68.70;;;;;;2292634;56;20956;-70
2023/07/12 00:03:51;;;;;;;2.42;0.80;;;24.70;68.00;;;;;;2526273;54;20920;-71
2023/07/12 00:06:19;;;;;;;2.33;0.90;;;24.70;68.10;;;;;;2292596;55;21016;-70
2023/07/12 00:08:47;;;;;;;1.85;0.85;;;24.70;68.10;;;;;;2293129;55;20952;-71
2023/07/12 00:11:21;;;;;;;2.28;0.93;;;24.70;68.10;;;;;;2292369;55;20972;-69
2023/07/12 00:13:51;;;;;;;2.75;0.85;;;24.70;68.20;;;;;;2293234;55;20940;-72
2023/07/12 00:16:29;;;;;;;1.87;0.80;;;24.70;68.30;;;;;;2291998;55;20960;-69
2023/07/12 00:18:55;;;;;;;2.65;0.90;;;24.70;68.20;;;;;;2292478;55;20977;-70
2023/07/12 00:21:23;;;;;;;2.15;0.82;;;24.80;68.40;;;;;;2527734;54;20976;-70
2023/07/12 00:23:54;;;;;;;3.35;0.95;;;24.70;68.30;;;;;;2527758;54;20961;-69
2023/07/12 00:26:35;;;;;;;2.80;1.12;;;24.80;68.50;;;;;;2292350;55;20924;-71
2023/07/12 00:29:03;;;;;;;3.10;1.37;;;24.80;68.50;;;;;;2293049;55;20964;-69
2023/07/12 00:31:30;;;;;;;3.65;1.30;;;24.80;68.50;;;;;;2292873;55;20976;-70
2023/07/12 00:33:56;;;;;;;2.95;1.23;;;24.80;68.40;;;;;;2286525;55;21026;-69
2023/07/12 00:36:28;;;;;;;4.05;1.40;;;24.80;68.50;;;;;;2512266;54;20924;-70
2023/07/12 00:38:54;;;;;;;2.70;1.33;;;24.80;68.60;;;;;;2293208;55;20976;-72
2023/07/12 00:42:58;;;;;;;4.43;1.35;;;24.80;68.70;;;;;;2292212;56;21820;-70
2023/07/12 00:45:25;;;;;;;4.00;1.40;;;24.80;68.70;;;;;;2527264;54;20889;-67
2023/07/12 00:47:52;;;;;;;3.05;1.37;;;24.80;68.60;;;;;;2291704;55;22063;-70
2023/07/12 00:50:19;;;;;;;3.83;1.40;;;24.80;68.70;;;;;;2512867;54;20953;-72
2023/07/12 00:52:45;;;;;;;5.82;1.67;;;24.80;68.80;;;;;;2270917;56;21026;-72
2023/07/12 00:55:57;;;;;;;6.10;1.80;;;24.80;68.90;;;;;;2292912;55;20932;-70
2023/07/12 00:58:27;;;;;;;4.12;1.85;;;24.80;68.50;;;;;;2524794;54;20928;-69
2023/07/12 01:00:53;;;;;;;3.55;1.60;;;24.80;68.90;;;;;;2527785;54;20955;-71
2023/07/12 01:03:21;;;;;;;3.75;1.80;;;24.80;69.10;;;;;;2526954;54;20940;-70
2023/07/12 01:05:50;;;;;;;2.87;1.50;;;24.80;69.10;;;;;;2526856;54;20920;-69
2023/07/12 01:08:16;;;;;;;3.22;1.70;;;24.80;69.20;;;;;;2291741;55;21841;-69
2023/07/12 01:10:43;;;;;;;5.22;1.70;;;24.80;69.20;;;;;;2527399;54;20912;-70
2023/07/12 01:13:19;;;;;;;4.43;1.75;;;24.80;69.20;;;;;;2526392;54;21759;-69
2023/07/12 01:15:45;;;;;;;3.20;1.50;;;24.80;70.00;;;;;;2527929;54;20924;-68
2023/07/12 01:18:12;;;;;;;3.50;1.42;;;24.80;69.20;;;;;;2524181;54;20921;-69
2023/07/12 01:20:39;;;;;;;3.92;1.80;;;24.80;69.20;;;;;;2513384;54;21724;-69
2023/07/12 01:23:06;;;;;;;3.45;1.70;;;24.80;69.30;;;;;;2281939;55;20928;-70
2023/07/12 01:25:40;;;;;;;3.95;2.00;;;24.80;69.30;;;;;;2292264;55;20960;-68
2023/07/12 01:28:06;;;;;;;3.72;1.92;;;24.80;69.20;;;;;;2295798;55;20976;-69
2023/07/12 01:30:35;;;;;;;3.22;1.70;;;24.80;69.30;;;;;;2290571;56;21006;-72
2023/07/12 01:33:03;;;;;;;3.75;1.60;;;24.80;69.40;;;;;;2482534;54;20925;-69
2023/07/12 01:35:30;;;;;;;3.05;1.80;;;24.80;69.40;;;;;;2527710;54;21075;-68
2023/07/12 01:37:56;;;;;;;4.15;1.80;;;24.80;69.50;;;;;;2527043;54;20921;-69
2023/07/12 01:40:23;;;;;;;4.50;2.10;;;24.80;69.50;;;;;;2527647;54;21799;-69
2023/07/12 01:42:49;;;;;;;3.65;1.87;;;24.80;69.50;;;;;;2528099;54;20988;-69
2023/07/12 01:45:16;;;;;;;4.53;2.03;;;24.80;69.60;;;;;;2292569;55;21413;-69
2023/07/12 01:47:42;;;;;;;5.72;2.30;;;24.80;69.60;;;;;;2526768;54;21458;-72
2023/07/12 01:50:09;;;;;;;6.20;1.80;;;24.80;69.60;;;;;;2527513;54;21512;-70
2023/07/12 01:52:35;;;;;;;3.05;2.00;;;24.80;69.60;;;;;;2292162;55;20988;-69
2023/07/12 01:55:03;;;;;;;3.90;2.03;;;24.80;69.70;;;;;;2528215;54;21978;-68
2023/07/12 01:57:29;;;;;;;4.68;1.92;;;24.80;69.60;;;;;;2527706;54;21060;-69
2023/07/12 01:59:56;;;;;;;4.15;2.17;;;24.80;69.70;;;;;;2528489;54;20925;-67
2023/07/12 02:02:28;;;;;;;3.87;1.95;;;24.80;69.70;;;;;;2527408;54;21879;-70
2023/07/12 02:04:55;;;;;;;3.75;2.20;;;24.80;69.80;;;;;;2528746;54;21004;-68
2023/07/12 02:07:22;;;;;;;4.40;1.70;;;24.80;69.80;;;;;;2276780;55;21908;-72
2023/07/12 02:10:08;;;;;;;4.03;1.80;;;24.80;69.90;;;;;;2525351;54;20939;-73
2023/07/12 02:12:34;;;;;;;3.53;1.70;;;24.80;69.60;;;;;;2292642;55;20957;-68
2023/07/12 02:15:01;;;;;;;4.00;1.90;;;24.80;70.00;;;;;;2293499;55;20988;-69
2023/07/12 02:17:28;;;;;;;3.90;1.98;;;24.80;70.00;;;;;;2528062;54;20928;-68
2023/07/12 02:19:54;;;;;;;4.93;2.17;;;24.80;70.10;;;;;;2282673;55;21573;-69
2023/07/12 02:22:20;;;;;;;4.43;2.20;;;24.80;70.10;;;;;;2284707;55;21032;-69
2023/07/12 02:24:48;;;;;;;4.47;2.12;;;24.80;70.20;;;;;;2292601;55;21031;-72
2023/07/12 02:27:14;;;;;;;6.95;2.22;;;24.80;70.20;;;;;;2289816;55;20977;-67
2023/07/12 02:29:41;;;;;;;4.90;1.92;;;24.80;70.30;;;;;;2277618;55;20988;-74
2023/07/12 02:32:07;;;;;;;3.75;1.75;;;24.80;70.30;;;;;;2528832;54;20924;-69
2023/07/12 02:34:34;;;;;;;4.20;2.10;;;24.80;70.30;;;;;;2269439;55;20944;-71
2023/07/12 02:37:00;;;;;;;3.87;2.08;;;24.80;71.10;;;;;;2293355;55;20916;-69
2023/07/12 02:39:26;;;;;;;3.92;1.98;;;24.80;70.40;;;;;;2527894;54;20956;-71
2023/07/12 02:41:53;;;;;;;4.32;1.95;;;24.80;70.40;;;;;;2528110;54;20932;-70
2023/07/12 02:44:21;;;;;;;3.60;1.90;;;24.80;70.40;;;;;;2292195;56;21008;-66
2023/07/12 02:46:48;;;;;;;3.28;1.83;;;24.80;70.40;;;;;;2528100;54;20960;-68
2023/07/12 02:49:14;;;;;;;3.50;1.87;;;24.80;70.50;;;;;;2292561;55;20968;-68
2023/07/12 02:51:41;;;;;;;2.97;1.67;;;24.90;70.60;;;;;;2292592;55;20936;-69
2023/07/12 02:54:07;;;;;;;3.30;1.90;;;24.90;70.60;;;;;;2293150;55;20925;-69
2023/07/12 02:56:36;;;;;;;3.47;2.20;;;24.90;70.60;;;;;;2527779;54;20924;-70
2023/07/12 02:59:03;;;;;;;4.25;2.22;;;24.90;70.70;;;;;;2528574;54;20932;-73
2023/07/12 03:01:30;;;;;;;3.70;2.10;;;24.90;70.70;;;;;;2292038;55;20964;-69
2023/07/12 03:03:56;;;;;;;4.82;2.33;;;24.90;70.70;;;;;;2292783;55;21070;-70
2023/07/12 03:06:23;;;;;;;4.80;2.15;;;24.90;70.70;;;;;;2292577;55;20912;-70
2023/07/12 03:08:49;;;;;;;4.45;2.15;;;24.90;70.70;;;;;;2527739;54;21004;-69
2023/07/12 03:11:17;;;;;;;5.12;2.35;;;24.90;70.70;;;;;;2527709;54;21700;-69
2023/07/12 03:13:44;;;;;;;5.37;2.50;;;24.90;70.70;;;;;;2527785;54;20916;-69
2023/07/12 03:16:10;;;;;;;3.75;2.17;;;24.90;70.70;;;;;;2527667;54;20920;-70
2023/07/12 03:18:36;;;;;;;8.02;2.80;;;25.00;70.80;;;;;;2526671;54;21402;-68
2023/07/12 03:21:04;;;;;;;4.97;2.75;;;25.00;70.80;;;;;;2293053;55;20920;-69
2023/07/12 03:23:30;;;;;;;3.60;1.95;;;25.00;70.80;;;;;;2526410;54;21796;-67
2023/07/12 03:25:57;;;;;;;5.28;2.65;;;25.00;70.80;;;;;;2293060;55;21033;-69
2023/07/12 03:28:23;;;;;;;4.07;2.22;;;25.00;70.90;;;;;;2526187;54;21024;-69
2023/07/12 03:31:03;;;;;;;4.15;2.17;;;25.00;70.90;;;;;;2528260;54;20940;-69
2023/07/12 03:33:32;;;;;;;4.07;2.28;;;25.00;70.50;;;;;;2527498;54;20972;-74
2023/07/12 03:35:59;;;;;;;4.78;2.33;;;25.00;70.80;;;;;;2291364;55;21577;-68
2023/07/12 03:38:25;;;;;;;4.65;2.42;;;25.00;70.80;;;;;;2273699;55;20936;-68
2023/07/12 03:40:55;;;;;;;5.37;2.55;;;25.00;70.90;;;;;;2292413;55;21536;-75
2023/07/12 03:43:23;;;;;;;5.32;2.15;;;25.00;70.90;;;;;;2527795;54;21727;-68
2023/07/12 03:45:49;;;;;;;4.10;2.60;;;25.00;70.90;;;;;;2527744;54;20940;-68
2023/07/12 03:48:15;;;;;;;4.05;2.22;;;25.00;70.90;;;;;;2527847;54;20893;-72
2023/07/12 03:50:42;;;;;;;3.87;2.08;;;25.00;70.90;;;;;;2292861;55;21699;-67
2023/07/12 03:53:08;;;;;;;4.93;2.55;;;25.00;70.90;;;;;;2292707;55;20961;-70
2023/07/12 03:55:39;;;;;;;5.30;2.30;;;25.10;71.00;;;;;;2527800;54;20877;-67
2023/07/12 03:58:06;;;;;;;3.58;2.17;;;25.10;70.90;;;;;;2296033;54;21041;-68
2023/07/12 04:00:32;;;;;;;6.47;2.40;;;25.10;71.00;;;;;;2269714;55;20933;-68
2023/07/12 04:03:12;;;;;;;5.93;2.30;;;25.10;71.10;;;;;;2345612;54;2158810;-68
2023/07/12 04:05:40;;;;;;;4.75;2.25;;;25.10;70.70;;;;;;2526995;54;21467;-68
2023/07/12 04:08:08;;;;;;;3.70;2.22;;;25.10;71.10;;;;;;2292929;56;21437;-68
2023/07/12 04:10:34;;;;;;;4.60;2.58;;;25.10;71.10;;;;;;2292384;55;20988;-68
2023/07/12 04:13:01;;;;;;;3.53;2.17;;;25.10;71.20;;;;;;2528169;54;21007;-69
2023/07/12 04:15:28;;;;;;;4.45;1.95;;;25.10;71.20;;;;;;2292059;55;20904;-71
2023/07/12 04:17:54;;;;;;;4.45;2.00;;;25.10;71.20;;;;;;2282210;55;21589;-70
2023/07/12 04:20:22;;;;;;;4.65;2.55;;;25.10;71.20;;;;;;2517244;54;21474;-68
2023/07/12 04:22:50;;;;;;;4.60;2.42;;;25.20;71.40;;;;;;2527627;54;20972;-69
2023/07/12 04:25:16;;;;;;;4.60;2.22;;;25.20;71.40;;;;;;2292522;55;20988;-69
2023/07/12 04:27:42;;;;;;;3.65;2.10;;;25.20;71.40;;;;;;2292974;56;20908;-70
2023/07/12 04:30:11;;;;;;;3.30;2.08;;;25.20;71.40;;;;;;2292165;55;20972;-69
2023/07/12 04:32:38;;;;;;;5.00;2.45;;;25.20;71.40;;;;;;2527425;54;20944;-69
2023/07/12 04:35:04;;;;;;;4.85;2.42;;;25.20;71.50;;;;;;2293263;55;20941;-71
2023/07/12 04:37:31;;;;;;;4.05;2.50;;;25.30;71.50;;;;;;2292343;55;20892;-72
2023/07/12 04:39:57;;;;;;;5.10;2.83;;;25.30;71.60;;;;;;2292819;56;21004;-68
2023/07/12 04:42:25;;;;;;;3.75;2.10;;;25.30;71.50;;;;;;2527057;54;20932;-71
2023/07/12 04:44:52;;;;;;;5.05;2.35;;;25.30;71.50;;;;;;2528263;54;20912;-70
2023/07/12 04:47:18;;;;;;;7.07;2.70;;;25.30;71.50;;;;;;2292079;55;21704;-70
2023/07/12 04:49:47;;;;;;;4.50;2.33;;;25.30;71.50;;;;;;2501133;54;20985;-69
2023/07/12 04:52:14;;;;;;;4.55;2.58;;;25.40;71.70;;;;;;2527786;54;20928;-70
2023/07/12 04:54:44;;;;;;;4.35;2.60;;;25.40;71.60;;;;;;2521287;54;21049;-69
2023/07/12 04:57:10;;;;;;;6.32;2.65;;;25.40;71.60;;;;;;2276273;55;20984;-69
2023/07/12 04:59:36;;;;;;;5.97;2.72;;;25.40;71.70;;;;;;2527037;54;21004;-70
2023/07/12 05:02:03;;;;;;;4.97;2.78;;;25.40;71.60;;;;;;2273151;55;20924;-73
2023/07/12 05:04:31;;;;;;;4.25;2.80;;;25.50;71.70;;;;;;2527102;54;21659;-72
2023/07/12 05:07:09;;;;;;;6.10;2.60;;;25.50;71.70;;;;;;2528655;54;20983;-71
2023/07/12 05:09:36;;;;;;;4.55;2.65;;;25.50;71.70;;;;;;2293016;55;21345;-69
2023/07/12 05:12:03;;;;;;;6.20;2.72;;;25.60;71.70;;;;;;2527202;54;20900;-75
2023/07/12 05:14:29;;;;;;;5.70;3.17;;;25.50;71.70;;;;;;2510382;54;20974;-69
2023/07/12 05:16:56;;;;;;;5.70;2.65;;;25.50;71.80;;;;;;2518688;54;20937;-70
2023/07/12 05:19:22;;;;;;;8.20;3.10;;;25.60;71.80;;;;;;2527678;54;21244;-71
2023/07/12 05:21:49;;;;;;;6.80;3.20;;;25.60;71.90;;;;;;2527011;54;21017;-70
2023/07/12 05:24:20;;;;;;;4.87;2.70;;;25.60;71.90;;;;;;2526523;54;21567;-70
2023/07/12 05:26:47;;;;;;;5.75;2.55;;;25.70;71.90;;;;;;2527782;54;20904;-72
2023/07/12 05:29:13;;;;;;;5.28;2.60;;;25.70;71.90;;;;;;2522689;54;20990;-70
2023/07/12 05:31:40;;;;;;;7.25;2.80;;;25.70;72.00;;;;;;2276154;55;20976;-70
2023/07/12 05:34:09;;;;;;;4.55;2.78;;;25.70;72.70;;;;;;2293634;55;20936;-70
2023/07/12 05:36:35;;;;;;;4.70;2.55;;;25.80;72.00;;;;;;2292020;55;20905;-68
2023/07/12 05:39:04;;;;;;;4.25;2.80;;;25.60;71.90;;;;;;2292250;55;21721;-70
2023/07/12 05:41:30;;;;;;;5.12;2.75;;;25.80;72.00;;;;;;2280077;55;22038;-71
2023/07/12 05:43:57;;;;;;;5.68;3.00;;;25.80;72.00;;;;;;2511111;54;20956;-70
2023/07/12 05:46:23;;;;;;;4.90;2.75;;;25.80;72.00;;;;;;2527685;54;20983;-69
2023/07/12 05:48:50;;;;;;;5.05;2.80;;;25.90;72.10;;;;;;2292474;55;20944;-70
2023/07/12 05:51:18;;;;;;;5.05;2.72;;;25.90;72.10;;;;;;2514315;54;21633;-75
2023/07/12 05:53:44;;;;;;;4.93;2.62;;;25.90;72.00;;;;;;2526643;54;20931;-70
2023/07/12 05:56:10;;;;;;;7.80;2.67;;;25.90;72.00;;;;;;2293134;55;21041;-72
2023/07/12 05:58:37;;;;;;;4.37;2.58;;;25.90;72.00;;;;;;2274588;55;20967;-71
2023/07/12 06:01:05;;;;;;;4.35;2.60;;;26.00;72.10;;;;;;2273701;55;20988;-70
2023/07/12 06:03:32;;;;;;;3.85;2.00;;;26.00;72.00;;;;;;2527473;54;20931;-73
2023/07/12 06:05:59;;;;;;;4.50;2.25;;;26.00;72.00;;;;;;2528208;54;21489;-73
2023/07/12 06:08:26;;;;;;;4.05;2.05;;;26.00;71.90;;;;;;2292733;55;21371;-70
2023/07/12 06:10:53;;;;;;;5.55;2.70;;;26.10;72.00;;;;;;2273571;55;20982;-71
2023/07/12 06:13:19;;;;;;;4.62;2.70;;;26.10;72.00;;;;;;2527978;54;20912;-69
2023/07/12 06:15:45;;;;;;;4.28;2.87;;;26.10;71.90;;;;;;2527766;54;20917;-70
2023/07/12 06:18:12;;;;;;;5.60;2.42;;;26.10;71.90;;;;;;2523298;54;20970;-69
2023/07/12 06:20:38;;;;;;;5.18;3.12;;;26.10;71.80;;;;;;2274189;55;20992;-68
2023/07/12 06:23:04;;;;;;;4.37;3.00;;;26.10;71.80;;;;;;2528180;54;21847;-69
2023/07/12 06:25:31;;;;;;;4.95;3.28;;;26.20;71.80;;;;;;2526565;54;20956;-71
2023/07/12 06:27:57;;;;;;;5.53;3.33;;;26.20;71.90;;;;;;2527998;54;21000;-69
2023/07/12 06:30:24;;;;;;;4.82;2.85;;;26.20;72.00;;;;;;2527539;54;20952;-70
2023/07/12 06:32:50;;;;;;;4.93;3.05;;;26.20;72.00;;;;;;2527150;54;20965;-72
2023/07/12 06:35:16;;;;;;;5.10;2.78;;;26.20;72.00;;;;;;2527887;54;21410;-70
2023/07/12 06:37:43;;;;;;;5.18;3.00;;;26.30;72.20;;;;;;2526895;54;20941;-70
2023/07/12 06:40:09;;;;;;;4.47;3.00;;;26.30;72.20;;;;;;2528146;54;20892;-71
2023/07/12 06:42:36;;;;;;;5.25;2.95;;;26.30;72.20;;;;;;2526898;54;20913;-71
2023/07/12 06:45:06;;;;;;;4.95;3.00;;;26.30;72.10;;;;;;2528262;54;20965;-70
2023/07/12 06:47:33;;;;;;;4.53;2.70;;;26.30;72.10;;;;;;2527322;54;20960;-70
2023/07/12 06:50:01;;;;;;;6.18;2.95;;;26.40;72.20;;;;;;2293210;55;20908;-69
2023/07/12 06:52:28;;;;;;;4.87;2.72;;;26.40;72.20;;;;;;2528354;54;21014;-70
2023/07/12 06:55:00;;;;;;;5.62;3.03;;;26.40;72.20;;;;;;2528441;54;20944;-70
2023/07/12 06:57:26;;;;;;;5.25;2.97;;;26.50;72.00;;;;;;2527660;54;20956;-72
2023/07/12 06:59:53;;;;;;;4.53;2.95;;;26.50;72.10;;;;;;2527787;54;20933;-69
2023/07/12 07:02:20;;;;;;;7.30;2.90;;;26.50;72.10;;;;;;2527423;54;20944;-71
2023/07/12 07:04:49;;;;;;;5.30;3.35;;;26.60;72.20;;;;;;2527988;54;20968;-70
2023/07/12 07:07:17;;;;;;;4.68;2.72;;;26.60;72.10;;;;;;2528361;54;21681;-71
2023/07/12 07:09:45;;;;;;;5.40;2.83;;;26.60;72.20;;;;;;2527389;54;20920;-70
2023/07/12 07:12:13;;;;;;;5.40;2.92;;;26.60;72.20;;;;;;2528033;54;20917;-71
2023/07/12 07:14:39;;;;;;;4.75;2.67;;;26.70;72.30;;;;;;2527557;54;20935;-70
2023/07/12 07:17:12;;;;;;;6.00;2.58;;;26.70;72.20;;;;;;2527950;54;21000;-70
2023/07/12 07:19:42;;;;;;;5.07;2.85;;;26.70;72.20;;;;;;2526804;54;20952;-73
2023/07/12 07:22:09;;;;;;;5.55;3.00;;;26.80;72.30;;;;;;2517958;54;21017;-71
2023/07/12 07:24:36;;;;;;;4.65;3.28;;;26.80;72.20;;;;;;2510989;54;20952;-71
2023/07/12 07:27:04;;;;;;;4.82;3.03;;;26.90;72.20;;;;;;2528120;54;21023;-70
2023/07/12 07:29:30;;;;;;;5.25;2.92;;;26.90;72.00;;;;;;2528100;54;20908;-72
2023/07/12 07:32:01;;;;;;;4.12;2.62;;;26.80;71.90;;;;;;2527545;54;20996;-70
2023/07/12 07:34:29;;;;;;;5.45;2.30;;;27.00;71.90;;;;;;2528192;54;20892;-70
2023/07/12 07:36:56;;;;;;;5.37;2.75;;;27.10;71.90;;;;;;2527895;54;21362;-71
2023/07/12 07:39:24;;;;;;;4.25;2.70;;;27.10;71.50;;;;;;2501640;54;20925;-71
2023/07/12 07:41:50;;;;;;;4.40;2.40;;;27.10;71.40;;;;;;2515509;54;20942;-71
2023/07/12 07:44:16;;;;;;;3.95;2.22;;;27.10;71.30;;;;;;2510386;54;21490;-71
2023/07/12 07:46:44;;;;;;;5.47;2.17;;;27.20;71.30;;;;;;2269171;55;20960;-70
2023/07/12 07:49:10;;;;;;;4.15;2.22;;;27.20;71.30;;;;;;2512177;54;20944;-73
2023/07/12 07:51:40;;;;;;;4.12;2.08;;;27.30;71.00;;;;;;2518624;54;20984;-70
2023/07/12 07:54:11;;;;;;;4.22;2.28;;;27.30;70.50;;;;;;2528599;54;21354;-73
2023/07/12 07:56:41;;;;;;;3.45;2.05;;;27.30;70.60;;;;;;2528057;54;20987;-70
2023/07/12 07:59:12;;;;;;;3.97;2.12;;;27.30;70.30;;;;;;2527216;54;20976;-72
2023/07/12 08:01:38;;;;;;;5.00;2.17;;;27.40;70.10;;;;;;2527638;54;20944;-70
2023/07/12 08:04:05;;;;;;;3.60;1.95;;;27.40;70.00;;;;;;2528238;54;21346;-70
2023/07/12 08:06:33;;;;;;;3.33;2.20;;;27.40;70.10;;;;;;2528628;54;20899;-70
2023/07/12 08:09:00;;;;;;;3.03;1.87;;;27.40;70.00;;;;;;2529414;54;21036;-70
2023/07/12 08:11:27;;;;;;;5.50;2.15;;;27.40;70.10;;;;;;2528660;54;20933;-72
2023/07/12 08:13:57;;;;;;;3.75;1.87;;;27.40;70.00;;;;;;2529089;54;20914;-70
2023/07/12 08:16:35;;;;;;;3.75;1.80;;;27.50;69.60;;;;;;2292944;55;21684;-70
2023/07/12 08:19:06;;;;;;;6.53;2.10;;;27.50;69.50;;;;;;2528521;54;21691;-70
2023/07/12 08:21:41;;;;;;;4.78;2.40;;;27.60;69.20;;;;;;2528690;54;21639;-74
2023/07/12 08:24:07;;;;;;;3.33;1.87;;;27.60;69.20;;;;;;2528242;54;20920;-69
2023/07/12 08:26:33;;;;;;;4.78;2.25;;;27.60;69.20;;;;;;2500403;54;21885;-71
2023/07/12 08:29:03;;;;;;;3.72;2.05;;;27.60;69.40;;;;;;2528120;54;20952;-70
2023/07/12 08:31:29;;;;;;;3.72;1.70;;;27.60;68.90;;;;;;2528814;54;21004;-70
2023/07/12 08:33:56;;;;;;;5.70;2.30;;;27.60;68.50;;;;;;2508360;54;21518;-69
2023/07/12 08:36:24;;;;;;;5.20;1.98;;;27.70;68.40;;;;;;2516736;54;20970;-70
2023/07/12 08:38:57;;;;;;;3.37;1.73;;;27.70;68.80;;;;;;2505348;54;20927;-70
2023/07/12 08:41:24;;;;;;;;;;;27.80;67.90;;;;;;2532215;54;21261;-71
2023/07/12 08:43:54;;;;;;;3.53;1.70;;;27.80;66.80;;;;;;2528582;54;20301;-72
2023/07/12 08:46:24;;;;;;;4.40;2.25;;;27.80;68.10;;;;;;2293292;55;21889;-71
2023/07/12 08:48:59;;;;;;;3.28;1.83;;;27.90;67.50;;;;;;2528253;54;20977;-70
2023/07/12 08:51:32;;;;;;;5.43;1.92;;;27.90;67.70;;;;;;2528455;54;21017;-70
2023/07/12 08:53:58;;;;;;;5.07;2.10;;;27.90;67.60;;;;;;2292533;55;20996;-69
2023/07/12 08:56:29;;;;;;;4.93;2.28;;;27.90;67.60;;;;;;2528947;54;20976;-70
2023/07/12 08:58:59;;;;;;;3.47;2.03;;;27.90;67.50;;;;;;2515034;54;21060;-69
2023/07/12 09:01:47;;;;;;;4.45;2.47;;;28.00;67.60;;;;;;2508248;54;20916;-69
2023/07/12 09:04:31;;;;;;;4.12;1.90;;;28.00;66.20;;;;;;2525677;54;21795;-69
2023/07/12 09:07:03;;;;;;;4.37;2.17;;;28.00;66.30;;;;;;2528124;54;21627;-70
2023/07/12 09:09:47;;;;;;;4.40;2.05;;;28.10;67.30;;;;;;2528314;54;20988;-69
2023/07/12 09:12:25;;;;;;;3.65;2.03;;;28.10;66.10;;;;;;2528040;54;20900;-69
2023/07/12 09:15:02;;;;;;;5.53;1.80;;;28.10;66.40;;;;;;2509624;54;20942;-68
2023/07/12 09:17:31;;;;;;;3.80;1.83;;;28.10;67.30;;;;;;2288972;55;20932;-68
2023/07/12 09:19:57;;;;;;;3.95;1.98;;;28.10;67.40;;;;;;2527829;54;20915;-68
2023/07/12 09:22:24;;;;;;;5.65;1.95;;;28.10;68.10;;;;;;2510068;54;20965;-69
2023/07/12 09:24:52;;;;;;;3.80;2.00;;;28.20;67.50;;;;;;2520012;54;20905;-69
2023/07/12 09:27:27;;;;;;;8.18;2.45;;;28.20;67.20;;;;;;2517414;54;21050;-69
2023/07/12 09:30:05;;;;;;;4.70;2.25;;;28.30;66.40;;;;;;2509398;54;21049;-68
2023/07/12 09:32:36;;;;;;;4.18;2.33;;;28.30;65.60;;;;;;2495774;55;20973;-68
2023/07/12 09:35:04;;;;;;;5.18;2.05;;;28.30;66.40;;;;;;2523053;54;20913;-70
2023/07/12 09:37:36;;;;;;;4.00;1.85;;;28.40;66.70;;;;;;2292446;55;20936;-70
2023/07/12 09:40:08;;;;;;;4.32;2.45;;;28.40;66.40;;;;;;2528255;54;20965;-69
2023/07/12 09:42:35;;;;;;;4.27;2.13;;;28.40;66.80;;;;;;2528934;54;20952;-67
2023/07/12 09:45:08;;;;;;;3.10;1.70;;;28.50;67.00;;;;;;2528541;54;20936;-72
2023/07/12 09:47:44;;;;;;;3.60;1.80;;;28.50;67.00;;;;;;2528774;54;20936;-70
2023/07/12 09:52:57;;;;;;;3.30;1.80;;;28.60;67.00;;;;;;2528087;54;21385;-70
2023/07/12 09:55:53;;;;;;;2.65;1.45;;;28.70;65.80;;;;;;2526892;54;21460;-72
2023/07/12 09:58:36;;;;;;;4.20;1.62;;;28.80;65.80;;;;;;2528338;54;20953;-69
2023/07/12 10:01:10;;;;;;;2.75;1.58;;;28.90;66.40;;;;;;2272449;55;20929;-70
2023/07/12 10:03:41;;;;;;;3.28;1.67;;;28.90;66.60;;;;;;2527555;54;21504;-72
2023/07/12 10:07:14;;;;;;;4.87;1.95;;;28.90;66.00;;;;;;2528423;54;20900;-73
2023/07/12 10:09:40;;;;;;;3.13;1.43;;;29.00;65.00;;;;;;2528196;54;20932;-68
2023/07/12 10:12:52;;;;;;;3.05;1.65;;;29.00;66.30;;;;;;2528124;54;20940;-69
2023/07/12 10:15:19;;;;;;;4.60;1.85;;;29.10;64.50;;;;;;2509583;54;21039;-72
2023/07/12 10:17:47;;;;;;;3.33;1.60;;;29.10;66.20;;;;;;2503973;54;21038;-69
2023/07/12 10:20:20;;;;;;;4.45;1.60;;;29.20;66.30;;;;;;2503101;54;20977;-69
2023/07/12 10:22:46;;;;;;;2.62;1.48;;;29.20;65.60;;;;;;2505557;54;20989;-69
2023/07/12 10:25:30;;;;;;;3.05;1.65;;;29.20;66.00;;;;;;2525881;54;22185;-69
2023/07/12 10:28:05;;;;;;;3.70;1.77;;;29.30;65.10;;;;;;2528187;54;20968;-68
2023/07/12 10:30:32;;;;;;;3.97;2.05;;;29.30;65.50;;;;;;2528160;54;20926;-69
2023/07/12 10:33:08;;;;;;;4.03;2.03;;;29.30;65.60;;;;;;2528436;54;20892;-69
2023/07/12 10:35:41;;;;;;;3.92;2.20;;;29.40;65.40;;;;;;2528179;54;20936;-69
2023/07/12 10:38:15;;;;;;;3.28;1.80;;;29.40;64.60;;;;;;2527796;54;20976;-70
2023/07/12 10:40:52;;;;;;;3.65;1.80;;;29.40;64.70;;;;;;2528173;54;20932;-67
2023/07/12 10:44:21;;;;;;;3.58;2.03;;;29.50;64.80;;;;;;2504490;54;21570;-69
2023/07/12 10:46:53;;;;;;;3.03;1.75;;;29.50;63.50;;;;;;2510049;54;20977;-71
2023/07/12 10:49:34;;;;;;;3.83;1.98;;;29.60;65.30;;;;;;2518973;54;20909;-70
2023/07/12 10:52:17;;;;;;;4.70;1.90;;;29.60;65.20;;;;;;2526464;54;20944;-69
2023/07/12 10:55:15;;;;;;;4.40;1.80;;;29.70;63.80;;;;;;2292730;55;21822;-71
2023/07/12 10:57:51;;;;;;;5.18;2.00;;;29.70;63.50;;;;;;2292133;55;21055;-71
2023/07/12 11:00:23;;;;;;;4.05;2.12;;;29.80;64.20;;;;;;2292066;55;20943;-73
2023/07/12 11:03:03;;;;;;;;;;;29.80;64.80;;;;;;2295239;55;20976;-72
2023/07/12 11:06:04;;;;;;;3.25;1.73;;;29.90;64.10;;;;;;2528514;54;20143;-70
2023/07/12 11:08:39;;;;;;;5.12;1.80;;;30.00;64.60;;;;;;2528218;54;21573;-69
2023/07/12 11:12:38;;;;;;;3.47;1.98;;;30.00;65.10;;;;;;2293449;55;20996;-70
2023/07/12 11:15:27;;;;;;;3.53;2.00;;;30.10;63.80;;;;;;2292545;55;20956;-73
2023/07/12 11:21:26;;;;;;;2.87;1.70;;;30.10;63.70;;;;;;2527783;54;20977;-69
2023/07/12 11:23:52;;;;;;;3.20;1.80;;;30.30;63.80;;;;;;2291821;55;21444;-71
2023/07/12 11:26:22;;;;;;;3.65;1.95;;;30.30;65.00;;;;;;2528170;54;20928;-70
2023/07/12 11:28:48;;;;;;;3.90;2.10;;;30.30;64.50;;;;;;2527748;54;20948;-68
2023/07/12 11:31:26;;;;;;;3.47;1.90;;;30.30;64.50;;;;;;2519939;54;21587;-71
2023/07/12 11:34:37;;;;;;;3.60;2.20;;;30.30;64.20;;;;;;2512192;54;21549;-69
2023/07/12 11:37:04;;;;;;;4.45;1.90;;;30.40;63.30;;;;;;2528198;54;21453;-70
2023/07/12 11:39:32;;;;;;;4.00;2.25;;;30.40;64.60;;;;;;2294083;55;20941;-70
2023/07/12 11:42:00;;;;;;;3.95;2.25;;;30.40;64.30;;;;;;2528120;54;20923;-70
2023/07/12 11:44:26;;;;;;;3.50;2.12;;;30.40;64.30;;;;;;2293096;55;20904;-71
2023/07/12 11:46:53;;;;;;;3.30;1.80;;;30.40;64.10;;;;;;2527270;54;20920;-70
2023/07/12 11:49:27;;;;;;;5.97;1.75;;;30.40;64.00;;;;;;2527793;54;21376;-69
2023/07/12 11:51:56;;;;;;;4.43;1.80;;;30.50;62.90;;;;;;2527900;54;20928;-70
2023/07/12 11:54:36;;;;;;;3.50;1.75;;;30.50;63.10;;;;;;2292342;55;20984;-70
2023/07/12 11:57:02;;;;;;;2.97;1.60;;;30.50;62.00;;;;;;2527736;54;20920;-70
2023/07/12 11:59:32;;;;;;;2.92;1.48;;;30.50;63.30;;;;;;2292681;55;20991;-70
2023/07/12 12:01:59;;;;;;;3.22;1.85;;;30.50;62.80;;;;;;2292420;55;20964;-70
2023/07/12 12:04:30;;;;;;;3.67;1.80;;;30.50;62.90;;;;;;2527906;54;20971;-70
2023/07/12 12:06:59;;;;;;;2.80;1.40;;;30.50;62.40;;;;;;2517572;54;20969;-69
2023/07/12 12:09:28;;;;;;;2.75;1.35;;;30.50;62.60;;;;;;2270168;55;22314;-69
2023/07/12 12:11:55;;;;;;;3.15;1.42;;;30.50;62.60;;;;;;2525385;54;21890;-70
2023/07/12 12:14:27;;;;;;;3.28;1.65;;;30.50;62.70;;;;;;2292579;55;21916;-70
2023/07/12 12:16:54;;;;;;;2.90;1.70;;;30.50;61.90;;;;;;2274971;55;21121;-70
2023/07/12 12:19:22;;;;;;;3.58;1.85;;;30.50;62.40;;;;;;2511091;54;22011;-69
2023/07/12 12:21:58;;;;;;;;;;;30.50;62.20;;;;;;2532383;54;20981;-71
2023/07/12 12:24:25;;;;;;;;;;;30.60;61.00;;;;;;2522388;54;20046;-70
2023/07/12 12:26:51;;;;;;;3.60;1.60;;;30.60;61.60;;;;;;2277904;54;20130;-72
2023/07/12 12:29:28;;;;;;;3.30;1.80;;;30.70;63.40;;;;;;2527248;54;20944;-71
2023/07/12 12:32:02;;;;;;;3.08;1.60;;;30.70;62.60;;;;;;2526442;54;20904;-71
2023/07/12 12:34:43;;;;;;;3.58;1.87;;;30.70;63.10;;;;;;2527387;54;20905;-71
2023/07/12 12:37:12;;;;;;;4.45;2.08;;;30.70;62.90;;;;;;2274436;55;20961;-67
2023/07/12 12:39:47;;;;;;;3.60;2.40;;;30.80;63.00;;;;;;2289699;55;20901;-68
2023/07/12 12:42:19;;;;;;;3.10;1.92;;;30.80;62.90;;;;;;2288830;55;20908;-72
2023/07/12 12:44:46;;;;;;;3.67;2.22;;;30.90;62.30;;;;;;2292651;55;21359;-72
2023/07/12 12:47:18;;;;;;;4.18;2.47;;;31.00;62.80;;;;;;2527542;54;21521;-71
2023/07/12 12:49:46;;;;;;;4.18;2.42;;;31.00;62.10;;;;;;2513501;54;20930;-70
2023/07/12 12:52:35;;;;;;;3.67;2.03;;;31.10;62.70;;;;;;2516459;54;20904;-70
2023/07/12 12:55:06;;;;;;;4.43;2.47;;;31.20;60.90;;;;;;2292871;56;20988;-70
2023/07/12 12:57:36;;;;;;;6.57;2.37;;;31.30;61.60;;;;;;2293131;55;20916;-68
2023/07/12 13:00:19;;;;;;;4.35;2.60;;;31.30;61.80;;;;;;2293094;55;21476;-72
2023/07/12 13:02:50;;;;;;;3.67;2.22;;;31.40;61.40;;;;;;2292277;55;20905;-72
2023/07/12 13:05:21;;;;;;;4.18;2.33;;;31.40;61.40;;;;;;2528428;54;20920;-69
2023/07/12 13:07:51;;;;;;;3.20;2.03;;;31.50;61.20;;;;;;2528655;54;20936;-69
2023/07/12 13:10:56;;;;;;;3.60;2.12;;;31.60;61.10;;;;;;2292547;55;20940;-71
2023/07/12 13:13:26;;;;;;;4.07;2.20;;;31.70;60.90;;;;;;2527897;54;21021;-69